Midland, Texas
Current Conditions -  °F | °C
As of 4:55 PM on Thursday 23 Oct 2014 (Local Time) from KMDD Reporting Station
Clear Clear  
Wind Chill: 82°   Ceiling: Unl
Heat Index: 82°   Visibility: 10mi
Dew Point: 54°   Wind: 0mph
Humidity: 39%   Direction: NA
Pressure: 30.08"   Gusts: NA
Location:  32°N, 102.07°W
Report Text: KMDD 232155Z AUTO 00000KT 10SM CLR 28/12 A3008 RMK AO2 T02750123
Loading
Personal Weather Stations






























Interactive Weather Map
Tropical Storm Tracking
New forecast layout! Learn more

10-Day Weather Forecast

Advertisements
Track Severe Weather on mobile